Current Weather

Bob Hope

Burbank, California (KBUR)

Report from: Saturday, February 24, 2024 9:53 AM PST
Current time: Saturday, February 24, 2024 10:30 AM PST

Nearby weather – Weather history – Daily summaries
Weather forecast

Temperature16.7°C (62.1°F)
Dew point6.1°C (43.0°F)
Winds 5 kts (2.6 m/s, 5.8 mph) South (170°)
Visibility10 mi. (16.1 km)
Clouds Sky clear
Altimeter30.05 in.Hg (1018 mB)
Relative humidity50 %
Density altitude228 ft. (70 m)
Sea-level pressure101.7 kPa (1017 mB, 30.02 in.Hg)
Max temp last 6 hours16.7°C (62.1°F)
Min temp last 6 hours12.2°C (54.0°F)
Remarks Automated weather observing station with precipitation discriminator
Pressure rising, then falling
Flight conditions Visual Meteorological Conditions
Raw dataKBUR 241753Z 17005KT 10SM CLR 17/06 A3005 RMK AO2 SLP165 T01670061 10167 20122 50011
An error has occurred. This application may no longer respond until reloaded. Reload 🗙